sensor_id;sensor_type;location;lat;lon;timestamp;P1;durP1;ratioP1;P2;durP2;ratioP2
10979;SDS011;5543;51.734;8.744;2022-09-27T00:01:56;0.90;;;0.90;;
10979;SDS011;5543;51.734;8.744;2022-09-27T00:04:24;0.85;;;0.85;;
10979;SDS011;5543;51.734;8.744;2022-09-27T00:06:53;1.10;;;1.00;;
10979;SDS011;5543;51.734;8.744;2022-09-27T00:09:21;1.33;;;1.23;;
10979;SDS011;5543;51.734;8.744;2022-09-27T00:11:49;1.00;;;1.00;;
10979;SDS011;5543;51.734;8.744;2022-09-27T00:14:17;1.80;;;0.90;;
10979;SDS011;5543;51.734;8.744;2022-09-27T00:16:45;1.23;;;1.10;;
10979;SDS011;5543;51.734;8.744;2022-09-27T00:19:15;2.78;;;1.30;;
10979;SDS011;5543;51.734;8.744;2022-09-27T00:21:45;1.20;;;1.00;;
10979;SDS011;5543;51.734;8.744;2022-09-27T00:24:17;0.90;;;0.90;;
10979;SDS011;5543;51.734;8.744;2022-09-27T00:26:47;1.30;;;1.20;;
10979;SDS011;5543;51.734;8.744;2022-09-27T00:29:16;1.00;;;1.00;;
10979;SDS011;5543;51.734;8.744;2022-09-27T00:31:45;1.08;;;1.08;;
10979;SDS011;5543;51.734;8.744;2022-09-27T00:34:17;3.22;;;1.13;;
10979;SDS011;5543;51.734;8.744;2022-09-27T00:36:47;2.38;;;1.58;;
10979;SDS011;5543;51.734;8.744;2022-09-27T00:39:16;1.10;;;1.00;;
10979;SDS011;5543;51.734;8.744;2022-09-27T00:41:44;1.63;;;1.30;;
10979;SDS011;5543;51.734;8.744;2022-09-27T00:47:28;1.85;;;1.58;;
10979;SDS011;5543;51.734;8.744;2022-09-27T00:50:04;4.40;;;1.30;;
10979;SDS011;5543;51.734;8.744;2022-09-27T00:52:39;1.33;;;1.23;;
10979;SDS011;5543;51.734;8.744;2022-09-27T00:55:10;1.90;;;1.50;;
10979;SDS011;5543;51.734;8.744;2022-09-27T01:05:19;1.73;;;1.20;;
10979;SDS011;5543;51.734;8.744;2022-09-27T01:07:50;1.52;;;1.20;;
10979;SDS011;5543;51.734;8.744;2022-09-27T01:13:05;1.60;;;1.50;;
10979;SDS011;5543;51.734;8.744;2022-09-27T01:15:40;3.28;;;1.58;;
10979;SDS011;5543;51.734;8.744;2022-09-27T01:18:20;3.35;;;1.75;;
10979;SDS011;5543;51.734;8.744;2022-09-27T01:29:46;4.53;;;1.80;;
10979;SDS011;5543;51.734;8.744;2022-09-27T01:32:28;3.97;;;1.98;;
10979;SDS011;5543;51.734;8.744;2022-09-27T01:35:05;2.10;;;1.60;;
10979;SDS011;5543;51.734;8.744;2022-09-27T01:37:43;3.45;;;1.58;;
10979;SDS011;5543;51.734;8.744;2022-09-27T01:40:19;3.45;;;2.20;;
10979;SDS011;5543;51.734;8.744;2022-09-27T01:42:56;1.92;;;1.60;;
10979;SDS011;5543;51.734;8.744;2022-09-27T01:45:30;2.10;;;1.80;;
10979;SDS011;5543;51.734;8.744;2022-09-27T01:48:03;2.22;;;1.73;;
10979;SDS011;5543;51.734;8.744;2022-09-27T01:50:37;3.67;;;2.05;;
10979;SDS011;5543;51.734;8.744;2022-09-27T01:53:11;2.67;;;2.13;;
10979;SDS011;5543;51.734;8.744;2022-09-27T01:55:45;2.08;;;1.55;;
10979;SDS011;5543;51.734;8.744;2022-09-27T01:58:16;2.28;;;1.63;;
10979;SDS011;5543;51.734;8.744;2022-09-27T02:00:49;2.70;;;1.65;;
10979;SDS011;5543;51.734;8.744;2022-09-27T02:03:21;3.17;;;1.83;;
10979;SDS011;5543;51.734;8.744;2022-09-27T02:05:52;1.85;;;1.75;;
10979;SDS011;5543;51.734;8.744;2022-09-27T02:08:29;1.90;;;1.80;;
10979;SDS011;5543;51.734;8.744;2022-09-27T02:11:02;1.95;;;1.58;;
10979;SDS011;5543;51.734;8.744;2022-09-27T02:13:34;1.67;;;1.33;;
10979;SDS011;5543;51.734;8.744;2022-09-27T02:16:09;1.38;;;1.27;;
10979;SDS011;5543;51.734;8.744;2022-09-27T02:18:50;1.23;;;1.13;;
10979;SDS011;5543;51.734;8.744;2022-09-27T02:21:28;3.33;;;1.80;;
10979;SDS011;5543;51.734;8.744;2022-09-27T02:24:01;2.03;;;1.50;;
10979;SDS011;5543;51.734;8.744;2022-09-27T02:26:32;1.42;;;1.30;;
10979;SDS011;5543;51.734;8.744;2022-09-27T02:29:06;2.20;;;1.35;;
10979;SDS011;5543;51.734;8.744;2022-09-27T02:31:36;1.05;;;0.95;;
10979;SDS011;5543;51.734;8.744;2022-09-27T02:34:07;3.70;;;1.27;;
10979;SDS011;5543;51.734;8.744;2022-09-27T02:36:39;1.75;;;1.17;;
10979;SDS011;5543;51.734;8.744;2022-09-27T02:39:07;1.55;;;1.45;;
10979;SDS011;5543;51.734;8.744;2022-09-27T02:41:36;3.28;;;1.40;;
10979;SDS011;5543;51.734;8.744;2022-09-27T02:44:04;1.98;;;1.38;;
10979;SDS011;5543;51.734;8.744;2022-09-27T02:46:45;2.95;;;2.50;;
10979;SDS011;5543;51.734;8.744;2022-09-27T02:49:28;2.85;;;1.42;;
10979;SDS011;5543;51.734;8.744;2022-09-27T02:52:14;3.65;;;1.30;;
10979;SDS011;5543;51.734;8.744;2022-09-27T02:54:51;2.70;;;1.13;;
10979;SDS011;5543;51.734;8.744;2022-09-27T02:57:33;4.82;;;2.25;;
10979;SDS011;5543;51.734;8.744;2022-09-27T03:00:08;1.30;;;1.20;;
10979;SDS011;5543;51.734;8.744;2022-09-27T03:02:41;5.95;;;1.30;;
10979;SDS011;5543;51.734;8.744;2022-09-27T03:05:19;3.25;;;1.40;;
10979;SDS011;5543;51.734;8.744;2022-09-27T03:07:50;1.50;;;1.40;;
10979;SDS011;5543;51.734;8.744;2022-09-27T03:10:19;2.83;;;1.45;;
10979;SDS011;5543;51.734;8.744;2022-09-27T03:12:49;3.40;;;1.23;;
10979;SDS011;5543;51.734;8.744;2022-09-27T03:15:18;1.27;;;1.08;;
10979;SDS011;5543;51.734;8.744;2022-09-27T03:17:47;5.13;;;1.58;;
10979;SDS011;5543;51.734;8.744;2022-09-27T03:20:15;3.75;;;1.20;;
10979;SDS011;5543;51.734;8.744;2022-09-27T03:22:44;1.60;;;1.45;;
10979;SDS011;5543;51.734;8.744;2022-09-27T03:25:13;2.35;;;1.60;;
10979;SDS011;5543;51.734;8.744;2022-09-27T03:27:42;3.03;;;0.93;;
10979;SDS011;5543;51.734;8.744;2022-09-27T03:30:11;1.55;;;1.17;;
10979;SDS011;5543;51.734;8.744;2022-09-27T03:32:41;3.03;;;1.42;;
10979;SDS011;5543;51.734;8.744;2022-09-27T03:35:09;3.72;;;1.13;;
10979;SDS011;5543;51.734;8.744;2022-09-27T03:37:38;1.50;;;1.10;;
10979;SDS011;5543;51.734;8.744;2022-09-27T03:40:09;1.02;;;0.98;;
10979;SDS011;5543;51.734;8.744;2022-09-27T03:42:37;0.90;;;0.90;;
10979;SDS011;5543;51.734;8.744;2022-09-27T03:45:10;1.20;;;1.10;;
10979;SDS011;5543;51.734;8.744;2022-09-27T03:47:39;1.05;;;1.00;;
10979;SDS011;5543;51.734;8.744;2022-09-27T03:50:08;1.00;;;1.00;;
10979;SDS011;5543;51.734;8.744;2022-09-27T03:52:37;1.10;;;1.00;;
10979;SDS011;5543;51.734;8.744;2022-09-27T03:55:05;1.60;;;1.40;;
10979;SDS011;5543;51.734;8.744;2022-09-27T03:57:35;2.15;;;1.45;;
10979;SDS011;5543;51.734;8.744;2022-09-27T04:00:04;3.13;;;1.27;;
10979;SDS011;5543;51.734;8.744;2022-09-27T04:02:33;4.55;;;1.25;;
10979;SDS011;5543;51.734;8.744;2022-09-27T04:05:02;1.60;;;1.00;;
10979;SDS011;5543;51.734;8.744;2022-09-27T04:07:30;0.90;;;0.90;;
10979;SDS011;5543;51.734;8.744;2022-09-27T04:09:58;4.47;;;1.35;;
10979;SDS011;5543;51.734;8.744;2022-09-27T04:12:26;1.15;;;1.05;;
10979;SDS011;5543;51.734;8.744;2022-09-27T04:14:56;2.38;;;1.23;;
10979;SDS011;5543;51.734;8.744;2022-09-27T04:17:25;1.48;;;1.30;;
10979;SDS011;5543;51.734;8.744;2022-09-27T04:19:53;1.30;;;1.20;;
10979;SDS011;5543;51.734;8.744;2022-09-27T04:22:21;2.38;;;1.48;;
10979;SDS011;5543;51.734;8.744;2022-09-27T04:24:53;1.45;;;1.00;;
10979;SDS011;5543;51.734;8.744;2022-09-27T04:27:21;1.90;;;1.77;;
10979;SDS011;5543;51.734;8.744;2022-09-27T04:29:50;1.55;;;1.27;;
10979;SDS011;5543;51.734;8.744;2022-09-27T04:32:19;1.30;;;1.20;;
10979;SDS011;5543;51.734;8.744;2022-09-27T04:34:47;2.08;;;1.40;;
10979;SDS011;5543;51.734;8.744;2022-09-27T04:37:33;1.35;;;1.08;;
10979;SDS011;5543;51.734;8.744;2022-09-27T04:40:02;1.58;;;1.10;;
10979;SDS011;5543;51.734;8.744;2022-09-27T04:42:31;3.38;;;1.40;;
10979;SDS011;5543;51.734;8.744;2022-09-27T04:44:59;2.65;;;1.17;;
10979;SDS011;5543;51.734;8.744;2022-09-27T04:47:29;1.83;;;1.27;;
10979;SDS011;5543;51.734;8.744;2022-09-27T04:49:57;1.63;;;1.30;;
10979;SDS011;5543;51.734;8.744;2022-09-27T04:52:25;1.65;;;1.00;;
10979;SDS011;5543;51.734;8.744;2022-09-27T04:54:53;1.45;;;1.20;;
10979;SDS011;5543;51.734;8.744;2022-09-27T04:57:21;4.38;;;1.20;;
10979;SDS011;5543;51.734;8.744;2022-09-27T04:59:49;1.73;;;1.35;;
10979;SDS011;5543;51.734;8.744;2022-09-27T05:02:18;2.58;;;1.45;;
10979;SDS011;5543;51.734;8.744;2022-09-27T05:04:47;1.90;;;1.20;;
10979;SDS011;5543;51.734;8.744;2022-09-27T05:07:15;2.83;;;0.98;;
10979;SDS011;5543;51.734;8.744;2022-09-27T05:09:43;1.42;;;1.15;;
10979;SDS011;5543;51.734;8.744;2022-09-27T05:12:11;1.58;;;1.27;;
10979;SDS011;5543;51.734;8.744;2022-09-27T05:14:40;1.20;;;1.10;;
10979;SDS011;5543;51.734;8.744;2022-09-27T05:17:08;1.50;;;1.13;;
10979;SDS011;5543;51.734;8.744;2022-09-27T05:19:36;1.05;;;0.90;;
10979;SDS011;5543;51.734;8.744;2022-09-27T05:22:06;1.50;;;1.10;;
10979;SDS011;5543;51.734;8.744;2022-09-27T05:24:34;1.30;;;1.15;;
10979;SDS011;5543;51.734;8.744;2022-09-27T05:27:03;1.27;;;1.00;;
10979;SDS011;5543;51.734;8.744;2022-09-27T05:29:33;4.93;;;1.20;;
10979;SDS011;5543;51.734;8.744;2022-09-27T05:32:02;4.32;;;1.20;;
10979;SDS011;5543;51.734;8.744;2022-09-27T05:34:30;0.90;;;0.90;;
10979;SDS011;5543;51.734;8.744;2022-09-27T05:36:59;3.88;;;1.52;;
10979;SDS011;5543;51.734;8.744;2022-09-27T05:39:28;2.03;;;1.27;;
10979;SDS011;5543;51.734;8.744;2022-09-27T05:41:56;3.45;;;1.23;;
10979;SDS011;5543;51.734;8.744;2022-09-27T05:44:25;3.47;;;1.45;;
10979;SDS011;5543;51.734;8.744;2022-09-27T05:46:53;1.20;;;1.10;;
10979;SDS011;5543;51.734;8.744;2022-09-27T05:49:21;2.83;;;1.10;;
10979;SDS011;5543;51.734;8.744;2022-09-27T05:51:49;3.60;;;1.30;;
10979;SDS011;5543;51.734;8.744;2022-09-27T05:54:17;3.85;;;1.92;;
10979;SDS011;5543;51.734;8.744;2022-09-27T05:56:46;4.18;;;2.25;;
10979;SDS011;5543;51.734;8.744;2022-09-27T05:59:14;3.05;;;1.77;;
10979;SDS011;5543;51.734;8.744;2022-09-27T06:01:43;12.25;;;4.22;;
10979;SDS011;5543;51.734;8.744;2022-09-27T06:04:11;3.45;;;1.60;;
10979;SDS011;5543;51.734;8.744;2022-09-27T06:06:39;2.03;;;1.70;;
10979;SDS011;5543;51.734;8.744;2022-09-27T06:09:08;2.90;;;1.75;;
10979;SDS011;5543;51.734;8.744;2022-09-27T06:11:37;3.58;;;1.85;;
10979;SDS011;5543;51.734;8.744;2022-09-27T06:14:11;2.97;;;1.50;;
10979;SDS011;5543;51.734;8.744;2022-09-27T06:16:40;1.63;;;1.52;;
10979;SDS011;5543;51.734;8.744;2022-09-27T06:19:08;3.10;;;1.73;;
10979;SDS011;5543;51.734;8.744;2022-09-27T06:21:36;3.28;;;1.60;;
10979;SDS011;5543;51.734;8.744;2022-09-27T06:24:05;2.63;;;1.27;;
10979;SDS011;5543;51.734;8.744;2022-09-27T06:26:33;3.08;;;1.63;;
10979;SDS011;5543;51.734;8.744;2022-09-27T06:29:02;1.95;;;1.35;;
10979;SDS011;5543;51.734;8.744;2022-09-27T06:31:31;3.55;;;1.42;;
10979;SDS011;5543;51.734;8.744;2022-09-27T06:34:00;2.45;;;1.40;;
10979;SDS011;5543;51.734;8.744;2022-09-27T06:36:28;1.95;;;1.17;;
10979;SDS011;5543;51.734;8.744;2022-09-27T06:38:58;3.08;;;1.38;;
10979;SDS011;5543;51.734;8.744;2022-09-27T06:41:27;1.00;;;1.00;;
10979;SDS011;5543;51.734;8.744;2022-09-27T06:43:55;1.52;;;1.42;;
10979;SDS011;5543;51.734;8.744;2022-09-27T06:46:23;1.67;;;1.55;;
10979;SDS011;5543;51.734;8.744;2022-09-27T06:48:53;1.27;;;1.17;;
10979;SDS011;5543;51.734;8.744;2022-09-27T06:51:22;1.50;;;1.40;;
10979;SDS011;5543;51.734;8.744;2022-09-27T06:53:50;1.20;;;1.10;;
10979;SDS011;5543;51.734;8.744;2022-09-27T06:56:18;1.48;;;1.20;;
10979;SDS011;5543;51.734;8.744;2022-09-27T06:58:46;1.60;;;1.50;;
10979;SDS011;5543;51.734;8.744;2022-09-27T07:01:32;1.52;;;1.38;;
10979;SDS011;5543;51.734;8.744;2022-09-27T07:04:03;3.58;;;1.23;;
10979;SDS011;5543;51.734;8.744;2022-09-27T07:06:31;2.17;;;1.65;;
10979;SDS011;5543;51.734;8.744;2022-09-27T07:09:00;1.40;;;1.30;;
10979;SDS011;5543;51.734;8.744;2022-09-27T07:11:29;1.90;;;1.30;;
10979;SDS011;5543;51.734;8.744;2022-09-27T07:13:58;2.45;;;1.45;;
10979;SDS011;5543;51.734;8.744;2022-09-27T07:16:27;5.10;;;2.88;;
10979;SDS011;5543;51.734;8.744;2022-09-27T07:18:56;1.55;;;1.20;;
10979;SDS011;5543;51.734;8.744;2022-09-27T07:21:25;1.45;;;1.27;;
10979;SDS011;5543;51.734;8.744;2022-09-27T07:23:53;1.88;;;1.58;;
10979;SDS011;5543;51.734;8.744;2022-09-27T07:26:22;3.13;;;1.70;;
10979;SDS011;5543;51.734;8.744;2022-09-27T07:28:50;2.55;;;1.52;;
10979;SDS011;5543;51.734;8.744;2022-09-27T07:31:18;2.60;;;1.35;;
10979;SDS011;5543;51.734;8.744;2022-09-27T07:33:47;2.22;;;1.67;;
10979;SDS011;5543;51.734;8.744;2022-09-27T07:36:15;2.50;;;1.83;;
10979;SDS011;5543;51.734;8.744;2022-09-27T07:38:46;4.25;;;1.88;;
10979;SDS011;5543;51.734;8.744;2022-09-27T07:41:14;2.15;;;1.60;;
10979;SDS011;5543;51.734;8.744;2022-09-27T07:43:42;1.48;;;1.38;;
10979;SDS011;5543;51.734;8.744;2022-09-27T07:46:11;4.03;;;2.13;;
10979;SDS011;5543;51.734;8.744;2022-09-27T07:48:40;3.78;;;2.03;;
10979;SDS011;5543;51.734;8.744;2022-09-27T07:51:09;3.78;;;2.10;;
10979;SDS011;5543;51.734;8.744;2022-09-27T07:53:37;6.55;;;2.53;;
10979;SDS011;5543;51.734;8.744;2022-09-27T07:56:07;5.20;;;2.63;;
10979;SDS011;5543;51.734;8.744;2022-09-27T07:58:37;4.45;;;2.72;;
10979;SDS011;5543;51.734;8.744;2022-09-27T08:01:05;5.07;;;2.90;;
10979;SDS011;5543;51.734;8.744;2022-09-27T08:03:33;3.80;;;2.15;;
10979;SDS011;5543;51.734;8.744;2022-09-27T08:06:02;4.43;;;2.90;;
10979;SDS011;5543;51.734;8.744;2022-09-27T08:08:30;4.53;;;2.38;;
10979;SDS011;5543;51.734;8.744;2022-09-27T08:10:58;3.92;;;2.72;;
10979;SDS011;5543;51.734;8.744;2022-09-27T08:13:28;4.55;;;2.97;;
10979;SDS011;5543;51.734;8.744;2022-09-27T08:16:00;8.07;;;3.58;;
10979;SDS011;5543;51.734;8.744;2022-09-27T08:18:28;5.53;;;3.47;;
10979;SDS011;5543;51.734;8.744;2022-09-27T08:20:56;4.97;;;3.33;;
10979;SDS011;5543;51.734;8.744;2022-09-27T08:23:25;7.50;;;4.20;;
10979;SDS011;5543;51.734;8.744;2022-09-27T08:25:53;7.30;;;4.10;;
10979;SDS011;5543;51.734;8.744;2022-09-27T08:28:22;7.97;;;4.45;;
10979;SDS011;5543;51.734;8.744;2022-09-27T08:30:52;4.93;;;3.55;;
10979;SDS011;5543;51.734;8.744;2022-09-27T08:33:20;7.43;;;4.35;;
10979;SDS011;5543;51.734;8.744;2022-09-27T08:35:57;5.72;;;3.45;;
10979;SDS011;5543;51.734;8.744;2022-09-27T08:38:25;6.50;;;3.35;;
10979;SDS011;5543;51.734;8.744;2022-09-27T08:40:54;6.80;;;3.25;;
10979;SDS011;5543;51.734;8.744;2022-09-27T08:43:29;5.22;;;3.22;;
10979;SDS011;5543;51.734;8.744;2022-09-27T08:46:09;10.05;;;3.97;;
10979;SDS011;5543;51.734;8.744;2022-09-27T08:48:46;4.30;;;3.05;;
10979;SDS011;5543;51.734;8.744;2022-09-27T08:51:20;5.93;;;3.25;;
10979;SDS011;5543;51.734;8.744;2022-09-27T08:53:53;7.57;;;3.47;;
10979;SDS011;5543;51.734;8.744;2022-09-27T08:56:24;6.32;;;3.67;;
10979;SDS011;5543;51.734;8.744;2022-09-27T08:58:54;5.65;;;3.40;;
10979;SDS011;5543;51.734;8.744;2022-09-27T09:01:29;2.60;;;2.40;;
10979;SDS011;5543;51.734;8.744;2022-09-27T09:03:58;3.20;;;2.58;;
10979;SDS011;5543;51.734;8.744;2022-09-27T09:06:31;2.78;;;2.50;;
10979;SDS011;5543;51.734;8.744;2022-09-27T09:09:10;5.20;;;2.47;;
10979;SDS011;5543;51.734;8.744;2022-09-27T09:11:48;2.97;;;2.67;;
10979;SDS011;5543;51.734;8.744;2022-09-27T09:14:51;2.85;;;2.55;;
10979;SDS011;5543;51.734;8.744;2022-09-27T09:17:34;4.03;;;2.30;;
10979;SDS011;5543;51.734;8.744;2022-09-27T09:20:16;3.30;;;2.83;;
10979;SDS011;5543;51.734;8.744;2022-09-27T09:22:59;3.60;;;2.90;;
10979;SDS011;5543;51.734;8.744;2022-09-27T09:25:45;2.90;;;2.17;;
10979;SDS011;5543;51.734;8.744;2022-09-27T09:28:26;2.20;;;1.98;;
10979;SDS011;5543;51.734;8.744;2022-09-27T09:31:04;3.30;;;2.28;;
10979;SDS011;5543;51.734;8.744;2022-09-27T09:33:42;2.10;;;1.92;;
10979;SDS011;5543;51.734;8.744;2022-09-27T09:36:17;2.35;;;2.15;;
10979;SDS011;5543;51.734;8.744;2022-09-27T09:38:52;3.55;;;2.13;;
10979;SDS011;5543;51.734;8.744;2022-09-27T09:41:25;3.08;;;2.58;;
10979;SDS011;5543;51.734;8.744;2022-09-27T09:43:56;5.25;;;2.63;;
10979;SDS011;5543;51.734;8.744;2022-09-27T09:46:30;2.78;;;2.47;;
10979;SDS011;5543;51.734;8.744;2022-09-27T09:49:12;3.33;;;2.53;;
10979;SDS011;5543;51.734;8.744;2022-09-27T09:51:45;2.28;;;2.08;;
10979;SDS011;5543;51.734;8.744;2022-09-27T09:54:18;4.03;;;2.50;;
10979;SDS011;5543;51.734;8.744;2022-09-27T09:56:55;2.35;;;2.15;;
10979;SDS011;5543;51.734;8.744;2022-09-27T09:59:32;2.42;;;2.22;;
10979;SDS011;5543;51.734;8.744;2022-09-27T10:02:21;3.15;;;2.20;;
10979;SDS011;5543;51.734;8.744;2022-09-27T10:04:56;2.30;;;2.10;;
10979;SDS011;5543;51.734;8.744;2022-09-27T10:07:29;3.55;;;2.33;;
10979;SDS011;5543;51.734;8.744;2022-09-27T10:09:59;2.40;;;2.20;;
10979;SDS011;5543;51.734;8.744;2022-09-27T10:12:32;2.28;;;2.08;;
10979;SDS011;5543;51.734;8.744;2022-09-27T10:15:02;2.75;;;2.20;;
10979;SDS011;5543;51.734;8.744;2022-09-27T10:17:33;3.92;;;2.45;;
10979;SDS011;5543;51.734;8.744;2022-09-27T10:20:12;5.15;;;3.90;;
10979;SDS011;5543;51.734;8.744;2022-09-27T10:22:48;2.80;;;1.92;;
10979;SDS011;5543;51.734;8.744;2022-09-27T10:25:21;2.97;;;2.40;;
10979;SDS011;5543;51.734;8.744;2022-09-27T10:27:51;2.00;;;1.80;;
10979;SDS011;5543;51.734;8.744;2022-09-27T10:30:22;3.00;;;2.25;;
10979;SDS011;5543;51.734;8.744;2022-09-27T10:32:52;6.03;;;2.53;;
10979;SDS011;5543;51.734;8.744;2022-09-27T10:35:35;3.75;;;2.60;;
10979;SDS011;5543;51.734;8.744;2022-09-27T10:38:18;4.00;;;2.55;;
10979;SDS011;5543;51.734;8.744;2022-09-27T10:40:49;3.40;;;2.03;;
10979;SDS011;5543;51.734;8.744;2022-09-27T10:43:26;2.75;;;2.30;;
10979;SDS011;5543;51.734;8.744;2022-09-27T10:46:03;3.75;;;2.40;;
10979;SDS011;5543;51.734;8.744;2022-09-27T10:48:37;3.20;;;2.75;;
10979;SDS011;5543;51.734;8.744;2022-09-27T10:51:18;4.57;;;2.42;;
10979;SDS011;5543;51.734;8.744;2022-09-27T10:53:51;2.70;;;2.30;;
10979;SDS011;5543;51.734;8.744;2022-09-27T10:56:25;4.88;;;2.63;;
10979;SDS011;5543;51.734;8.744;2022-09-27T10:58:56;2.50;;;2.13;;
10979;SDS011;5543;51.734;8.744;2022-09-27T11:01:25;3.88;;;2.60;;
10979;SDS011;5543;51.734;8.744;2022-09-27T11:04:05;5.05;;;2.92;;
10979;SDS011;5543;51.734;8.744;2022-09-27T11:06:35;4.05;;;2.95;;
10979;SDS011;5543;51.734;8.744;2022-09-27T11:09:15;5.47;;;2.53;;
10979;SDS011;5543;51.734;8.744;2022-09-27T11:11:45;5.90;;;2.45;;
10979;SDS011;5543;51.734;8.744;2022-09-27T11:14:17;2.70;;;2.50;;
10979;SDS011;5543;51.734;8.744;2022-09-27T11:16:50;3.13;;;2.53;;
10979;SDS011;5543;51.734;8.744;2022-09-27T11:19:38;3.47;;;2.55;;
10979;SDS011;5543;51.734;8.744;2022-09-27T11:22:22;3.33;;;2.47;;
10979;SDS011;5543;51.734;8.744;2022-09-27T11:25:06;3.03;;;2.42;;
10979;SDS011;5543;51.734;8.744;2022-09-27T11:27:45;2.72;;;2.25;;
10979;SDS011;5543;51.734;8.744;2022-09-27T11:30:22;2.65;;;1.98;;
10979;SDS011;5543;51.734;8.744;2022-09-27T11:33:01;2.35;;;1.90;;
10979;SDS011;5543;51.734;8.744;2022-09-27T11:35:53;2.08;;;1.83;;
10979;SDS011;5543;51.734;8.744;2022-09-27T11:38:29;3.03;;;2.17;;
10979;SDS011;5543;51.734;8.744;2022-09-27T11:41:22;2.65;;;2.17;;
10979;SDS011;5543;51.734;8.744;2022-09-27T11:44:05;1.90;;;1.80;;
10979;SDS011;5543;51.734;8.744;2022-09-27T11:47:02;2.65;;;2.00;;
10979;SDS011;5543;51.734;8.744;2022-09-27T11:49:51;2.85;;;2.22;;
10979;SDS011;5543;51.734;8.744;2022-09-27T11:52:39;2.10;;;1.95;;
10979;SDS011;5543;51.734;8.744;2022-09-27T11:55:22;3.15;;;2.58;;
10979;SDS011;5543;51.734;8.744;2022-09-27T11:57:57;3.38;;;2.47;;
10979;SDS011;5543;51.734;8.744;2022-09-27T12:00:32;2.95;;;2.40;;
10979;SDS011;5543;51.734;8.744;2022-09-27T12:06:14;1.85;;;1.75;;
10979;SDS011;5543;51.734;8.744;2022-09-27T12:08:53;1.88;;;1.77;;
10979;SDS011;5543;51.734;8.744;2022-09-27T12:11:30;3.65;;;1.85;;
10979;SDS011;5543;51.734;8.744;2022-09-27T12:14:05;1.70;;;1.60;;
10979;SDS011;5543;51.734;8.744;2022-09-27T12:16:38;1.85;;;1.75;;
10979;SDS011;5543;51.734;8.744;2022-09-27T12:19:11;6.07;;;1.70;;
10979;SDS011;5543;51.734;8.744;2022-09-27T12:21:44;1.50;;;1.40;;
10979;SDS011;5543;51.734;8.744;2022-09-27T12:24:14;1.77;;;1.48;;
10979;SDS011;5543;51.734;8.744;2022-09-27T12:26:49;1.50;;;1.40;;
10979;SDS011;5543;51.734;8.744;2022-09-27T12:29:21;3.90;;;1.30;;
10979;SDS011;5543;51.734;8.744;2022-09-27T12:31:55;1.45;;;1.35;;
10979;SDS011;5543;51.734;8.744;2022-09-27T12:34:29;1.70;;;1.60;;
10979;SDS011;5543;51.734;8.744;2022-09-27T12:37:04;1.50;;;1.40;;
10979;SDS011;5543;51.734;8.744;2022-09-27T12:39:44;3.38;;;1.38;;
10979;SDS011;5543;51.734;8.744;2022-09-27T12:42:19;2.53;;;1.50;;
10979;SDS011;5543;51.734;8.744;2022-09-27T12:44:50;1.65;;;1.55;;
10979;SDS011;5543;51.734;8.744;2022-09-27T12:47:23;1.38;;;1.27;;
10979;SDS011;5543;51.734;8.744;2022-09-27T12:50:03;1.50;;;1.40;;
10979;SDS011;5543;51.734;8.744;2022-09-27T12:52:40;1.40;;;1.30;;
10979;SDS011;5543;51.734;8.744;2022-09-27T12:55:24;1.40;;;1.30;;
10979;SDS011;5543;51.734;8.744;2022-09-27T13:01:13;1.50;;;1.40;;
10979;SDS011;5543;51.734;8.744;2022-09-27T13:03:57;1.40;;;1.30;;
10979;SDS011;5543;51.734;8.744;2022-09-27T13:06:39;1.80;;;1.52;;
10979;SDS011;5543;51.734;8.744;2022-09-27T13:09:47;1.50;;;1.40;;
10979;SDS011;5543;51.734;8.744;2022-09-27T13:12:25;1.42;;;1.27;;
10979;SDS011;5543;51.734;8.744;2022-09-27T13:15:00;1.73;;;1.63;;
10979;SDS011;5543;51.734;8.744;2022-09-27T13:17:33;1.30;;;1.23;;
10979;SDS011;5543;51.734;8.744;2022-09-27T13:29:23;1.40;;;1.30;;
10979;SDS011;5543;51.734;8.744;2022-09-27T13:32:02;1.40;;;1.30;;
10979;SDS011;5543;51.734;8.744;2022-09-27T13:34:46;1.02;;;1.02;;
10979;SDS011;5543;51.734;8.744;2022-09-27T13:40:19;1.35;;;1.25;;
10979;SDS011;5543;51.734;8.744;2022-09-27T13:46:02;1.42;;;1.30;;
10979;SDS011;5543;51.734;8.744;2022-09-27T13:48:41;1.55;;;1.27;;
10979;SDS011;5543;51.734;8.744;2022-09-27T13:51:16;3.55;;;2.97;;
10979;SDS011;5543;51.734;8.744;2022-09-27T13:53:55;1.33;;;1.25;;
10979;SDS011;5543;51.734;8.744;2022-09-27T13:59:19;1.40;;;1.30;;
10979;SDS011;5543;51.734;8.744;2022-09-27T14:01:53;1.38;;;1.27;;
10979;SDS011;5543;51.734;8.744;2022-09-27T14:04:28;1.10;;;1.10;;
10979;SDS011;5543;51.734;8.744;2022-09-27T14:07:02;1.83;;;1.70;;
10979;SDS011;5543;51.734;8.744;2022-09-27T14:09:31;1.30;;;1.20;;
10979;SDS011;5543;51.734;8.744;2022-09-27T14:12:02;1.30;;;1.20;;
10979;SDS011;5543;51.734;8.744;2022-09-27T14:14:35;1.55;;;1.45;;
10979;SDS011;5543;51.734;8.744;2022-09-27T14:17:06;1.92;;;1.80;;
10979;SDS011;5543;51.734;8.744;2022-09-27T14:19:39;1.77;;;1.33;;
10979;SDS011;5543;51.734;8.744;2022-09-27T14:22:12;2.05;;;1.85;;
10979;SDS011;5543;51.734;8.744;2022-09-27T14:24:44;2.38;;;1.85;;
10979;SDS011;5543;51.734;8.744;2022-09-27T14:27:15;2.50;;;1.75;;
10979;SDS011;5543;51.734;8.744;2022-09-27T14:29:46;2.13;;;2.00;;
10979;SDS011;5543;51.734;8.744;2022-09-27T14:32:16;2.05;;;1.83;;
10979;SDS011;5543;51.734;8.744;2022-09-27T14:34:47;1.83;;;1.73;;
10979;SDS011;5543;51.734;8.744;2022-09-27T14:37:30;1.40;;;1.30;;
10979;SDS011;5543;51.734;8.744;2022-09-27T14:39:58;2.22;;;1.90;;
10979;SDS011;5543;51.734;8.744;2022-09-27T14:42:32;3.33;;;2.63;;
10979;SDS011;5543;51.734;8.744;2022-09-27T14:45:06;1.70;;;1.55;;
10979;SDS011;5543;51.734;8.744;2022-09-27T14:47:45;2.25;;;2.03;;
10979;SDS011;5543;51.734;8.744;2022-09-27T14:50:18;2.42;;;2.20;;
10979;SDS011;5543;51.734;8.744;2022-09-27T14:52:49;2.53;;;1.75;;
10979;SDS011;5543;51.734;8.744;2022-09-27T14:55:21;2.22;;;2.03;;
10979;SDS011;5543;51.734;8.744;2022-09-27T14:57:51;3.70;;;1.92;;
10979;SDS011;5543;51.734;8.744;2022-09-27T15:00:21;2.42;;;1.88;;
10979;SDS011;5543;51.734;8.744;2022-09-27T15:02:52;2.75;;;2.08;;
10979;SDS011;5543;51.734;8.744;2022-09-27T15:05:26;4.45;;;2.90;;
10979;SDS011;5543;51.734;8.744;2022-09-27T15:07:57;3.45;;;2.08;;
10979;SDS011;5543;51.734;8.744;2022-09-27T15:10:29;2.40;;;2.10;;
10979;SDS011;5543;51.734;8.744;2022-09-27T15:13:01;2.28;;;2.08;;
10979;SDS011;5543;51.734;8.744;2022-09-27T15:15:32;2.20;;;2.00;;
10979;SDS011;5543;51.734;8.744;2022-09-27T15:18:22;2.35;;;1.92;;
10979;SDS011;5543;51.734;8.744;2022-09-27T15:21:01;3.35;;;2.30;;
10979;SDS011;5543;51.734;8.744;2022-09-27T15:23:34;2.22;;;2.00;;
10979;SDS011;5543;51.734;8.744;2022-09-27T15:26:06;3.70;;;1.92;;
10979;SDS011;5543;51.734;8.744;2022-09-27T15:28:40;2.90;;;2.50;;
10979;SDS011;5543;51.734;8.744;2022-09-27T15:31:10;2.13;;;1.95;;
10979;SDS011;5543;51.734;8.744;2022-09-27T15:33:40;2.38;;;2.05;;
10979;SDS011;5543;51.734;8.744;2022-09-27T15:36:24;2.03;;;1.67;;
10979;SDS011;5543;51.734;8.744;2022-09-27T15:39:17;2.47;;;1.90;;
10979;SDS011;5543;51.734;8.744;2022-09-27T15:41:59;1.80;;;1.70;;
10979;SDS011;5543;51.734;8.744;2022-09-27T15:44:36;1.70;;;1.52;;
10979;SDS011;5543;51.734;8.744;2022-09-27T15:53:06;2.80;;;1.77;;
10979;SDS011;5543;51.734;8.744;2022-09-27T15:55:38;4.55;;;2.08;;
10979;SDS011;5543;51.734;8.744;2022-09-27T15:58:11;2.13;;;1.92;;
10979;SDS011;5543;51.734;8.744;2022-09-27T16:00:51;1.50;;;1.40;;
10979;SDS011;5543;51.734;8.744;2022-09-27T16:03:21;1.88;;;1.77;;
10979;SDS011;5543;51.734;8.744;2022-09-27T16:05:50;2.92;;;1.80;;
10979;SDS011;5543;51.734;8.744;2022-09-27T16:08:21;5.25;;;2.58;;
10979;SDS011;5543;51.734;8.744;2022-09-27T16:10:50;1.83;;;1.50;;
10979;SDS011;5543;51.734;8.744;2022-09-27T16:13:20;1.70;;;1.60;;
10979;SDS011;5543;51.734;8.744;2022-09-27T16:15:48;2.22;;;2.10;;
10979;SDS011;5543;51.734;8.744;2022-09-27T16:18:16;1.98;;;1.70;;
10979;SDS011;5543;51.734;8.744;2022-09-27T16:20:45;2.30;;;2.03;;
10979;SDS011;5543;51.734;8.744;2022-09-27T16:23:14;2.28;;;1.88;;
10979;SDS011;5543;51.734;8.744;2022-09-27T16:25:42;2.47;;;2.17;;
10979;SDS011;5543;51.734;8.744;2022-09-27T16:28:10;2.05;;;1.92;;